createdAt,value
2019-03-26T00:00:28.818Z,8.48
2019-03-26T00:02:58.762Z,9.65
2019-03-26T00:05:28.654Z,9.45
2019-03-26T00:07:58.520Z,9.80
2019-03-26T00:10:28.318Z,7.85
2019-03-26T00:12:58.222Z,9.40
2019-03-26T00:15:28.134Z,8.78
2019-03-26T00:17:58.102Z,9.90
2019-03-26T00:20:27.966Z,9.23
2019-03-26T00:22:57.922Z,11.57
2019-03-26T00:25:27.731Z,9.58
2019-03-26T00:27:57.609Z,10.10
2019-03-26T00:30:27.459Z,9.10
2019-03-26T00:32:57.303Z,8.95
2019-03-26T00:35:27.217Z,9.90
2019-03-26T00:37:57.027Z,9.03
2019-03-26T00:40:26.991Z,9.90
2019-03-26T00:42:56.961Z,8.70
2019-03-26T00:45:26.796Z,10.08
2019-03-26T00:47:56.594Z,9.70
2019-03-26T00:50:26.433Z,9.50
2019-03-26T00:52:56.217Z,8.73
2019-03-26T00:55:26.034Z,8.60
2019-03-26T00:57:56.030Z,8.85
2019-03-26T01:00:44.724Z,9.25
2019-03-26T01:03:14.587Z,9.75
2019-03-26T01:05:45.243Z,10.13
2019-03-26T01:08:15.143Z,9.43
2019-03-26T01:10:44.971Z,9.28
2019-03-26T01:13:14.892Z,8.48
2019-03-26T01:15:44.773Z,8.50
2019-03-26T01:18:14.719Z,10.38
2019-03-26T01:20:47.022Z,8.88
2019-03-26T01:23:17.249Z,8.10
2019-03-26T01:25:47.208Z,10.13
2019-03-26T01:28:17.037Z,10.03
2019-03-26T01:30:48.184Z,8.90
2019-03-26T01:33:19.039Z,9.78
2019-03-26T01:35:48.860Z,8.18
2019-03-26T01:38:18.791Z,9.40
2019-03-26T01:40:48.922Z,7.70
2019-03-26T01:43:21.289Z,8.60
2019-03-26T01:45:51.217Z,9.33
2019-03-26T01:48:21.071Z,9.00
2019-03-26T01:50:51.597Z,7.50
2019-03-26T01:53:21.430Z,7.92
2019-03-26T01:55:51.229Z,9.78
2019-03-26T01:58:21.107Z,7.85
2019-03-26T02:00:51.101Z,8.50
2019-03-26T02:03:20.914Z,8.30
2019-03-26T02:05:52.396Z,8.05
2019-03-26T02:08:22.234Z,8.73
2019-03-26T02:10:52.087Z,8.75
2019-03-26T02:13:21.987Z,8.15
2019-03-26T02:15:51.841Z,7.30
2019-03-26T02:18:21.759Z,9.08
2019-03-26T02:20:51.584Z,8.40
2019-03-26T02:23:21.417Z,8.75
2019-03-26T02:25:51.263Z,9.18
2019-03-26T02:28:21.092Z,7.78
2019-03-26T02:30:51.162Z,9.45
2019-03-26T02:33:21.105Z,8.53
2019-03-26T02:35:53.152Z,9.35
2019-03-26T02:38:23.079Z,8.43
2019-03-26T02:40:54.045Z,7.95
2019-03-26T02:43:24.169Z,9.28
2019-03-26T02:45:54.087Z,9.00
2019-03-26T02:48:23.993Z,9.43
2019-03-26T02:50:56.877Z,9.80
2019-03-26T02:53:26.690Z,10.10
2019-03-26T02:55:56.527Z,10.08
2019-03-26T02:58:26.676Z,10.70
2019-03-26T03:00:56.548Z,10.82
2019-03-26T03:03:26.451Z,9.83
2019-03-26T03:05:56.305Z,10.68
2019-03-26T03:08:26.221Z,11.05
2019-03-26T03:10:56.172Z,12.20
2019-03-26T03:13:26.032Z,11.50
2019-03-26T03:15:55.986Z,12.53
2019-03-26T03:18:25.884Z,11.50
2019-03-26T03:20:55.730Z,11.90
2019-03-26T03:23:26.793Z,11.35
2019-03-26T03:25:56.660Z,12.18
2019-03-26T03:28:26.583Z,10.35
2019-03-26T03:30:56.869Z,11.33
2019-03-26T03:33:26.687Z,11.80
2019-03-26T03:35:56.530Z,11.25
2019-03-26T03:38:26.301Z,10.45
2019-03-26T03:40:56.102Z,11.80
2019-03-26T03:43:26.000Z,11.25
2019-03-26T03:45:56.222Z,10.63
2019-03-26T03:48:26.474Z,10.45
2019-03-26T03:50:58.042Z,10.32
2019-03-26T03:53:28.068Z,10.25
2019-03-26T03:55:58.534Z,12.15
2019-03-26T03:58:29.959Z,10.13
2019-03-26T04:00:59.746Z,10.15
2019-03-26T04:03:29.539Z,10.45
2019-03-26T04:06:09.001Z,10.32
2019-03-26T04:08:30.931Z,10.78
2019-03-26T04:11:00.732Z,10.00
2019-03-26T04:13:30.614Z,9.88
2019-03-26T04:16:00.512Z,11.40
2019-03-26T04:18:31.442Z,10.38
2019-03-26T04:21:02.862Z,10.48
2019-03-26T04:23:32.775Z,9.28
2019-03-26T04:26:02.790Z,10.08
2019-03-26T04:28:32.601Z,11.85
2019-03-26T04:31:02.527Z,10.38
2019-03-26T04:33:32.340Z,10.38
2019-03-26T04:36:02.310Z,12.63
2019-03-26T04:38:32.268Z,10.68
2019-03-26T04:41:02.170Z,11.78
2019-03-26T04:43:32.000Z,13.48
2019-03-26T04:46:01.932Z,10.95
2019-03-26T04:48:31.775Z,11.20
2019-03-26T04:51:01.619Z,11.75
2019-03-26T04:53:34.118Z,11.08
2019-03-26T04:56:04.360Z,10.68
2019-03-26T04:58:43.935Z,10.18
2019-03-26T05:01:15.093Z,11.53
2019-03-26T05:03:51.006Z,11.18
2019-03-26T05:06:22.110Z,10.95
2019-03-26T05:08:51.902Z,12.90
2019-03-26T05:11:22.136Z,11.50
2019-03-26T05:17:27.171Z,10.40
2019-03-26T05:23:14.381Z,10.63
2019-03-26T05:25:44.437Z,11.50
2019-03-26T05:28:19.653Z,12.63
2019-03-26T05:39:35.069Z,12.15
2019-03-26T05:50:13.382Z,11.25
2019-03-26T05:52:43.482Z,11.93
2019-03-26T05:55:17.333Z,11.33
2019-03-26T05:57:49.839Z,11.70
2019-03-26T06:00:39.966Z,11.50
2019-03-26T06:03:10.457Z,10.85
2019-03-26T06:05:45.852Z,13.43
2019-03-26T06:08:18.092Z,10.78
2019-03-26T06:10:56.765Z,10.15
2019-03-26T06:13:29.067Z,10.75
2019-03-26T06:16:38.221Z,10.03
2019-03-26T06:38:01.943Z,10.70
2019-03-26T17:08:00.065Z,2.42
2019-03-26T17:10:44.006Z,2.25
2019-03-26T17:25:35.734Z,3.58
2019-03-26T17:28:15.729Z,3.62
2019-03-26T17:31:36.007Z,4.20
2019-03-26T17:48:18.376Z,5.28
2019-03-26T17:53:26.659Z,4.80
2019-03-26T18:05:54.742Z,5.00
2019-03-26T18:08:32.042Z,5.62
2019-03-26T18:20:32.761Z,5.08
2019-03-26T18:26:22.321Z,4.92
2019-03-26T18:28:55.354Z,5.60
2019-03-26T18:36:53.060Z,5.72
2019-03-26T18:39:26.512Z,6.12
2019-03-26T18:42:12.600Z,5.85
2019-03-26T19:02:56.181Z,6.62
2019-03-26T19:08:56.878Z,6.35
2019-03-26T19:11:36.937Z,6.17
2019-03-26T19:14:09.714Z,5.47
2019-03-26T19:16:46.831Z,5.90
2019-03-26T19:19:52.819Z,5.78
2019-03-26T19:22:26.024Z,5.80
2019-03-26T19:25:00.149Z,5.95
2019-03-26T19:27:34.308Z,6.22
2019-03-26T19:30:04.786Z,6.95
2019-03-26T19:32:35.764Z,6.90
2019-03-26T19:42:02.457Z,8.35
2019-03-26T19:44:32.708Z,7.30
2019-03-26T19:47:05.227Z,8.33
2019-03-26T19:49:41.420Z,8.10
2019-03-26T19:52:11.612Z,7.65
2019-03-26T20:00:57.771Z,7.40
2019-03-26T20:03:33.845Z,6.05
2019-03-26T20:06:13.689Z,7.35
2019-03-26T20:09:12.214Z,7.12
2019-03-26T20:30:53.609Z,6.60
2019-03-26T20:33:27.854Z,8.30
2019-03-26T20:35:58.709Z,8.08
2019-03-26T20:38:29.298Z,8.13
2019-03-26T20:44:01.457Z,7.95
2019-03-26T20:46:41.419Z,8.10
2019-03-26T20:49:11.722Z,7.50
2019-03-26T20:51:45.181Z,6.65
2019-03-26T20:54:17.475Z,7.95
2019-03-26T20:56:51.006Z,7.35
2019-03-26T21:00:00.421Z,7.65
2019-03-26T21:02:55.410Z,9.45
2019-03-26T21:05:36.010Z,8.80
2019-03-26T21:11:07.859Z,7.72
2019-03-26T21:13:51.056Z,7.75
2019-03-26T21:16:30.982Z,7.70
2019-03-26T21:19:19.956Z,8.10
2019-03-26T21:21:53.093Z,7.28
2019-03-26T21:24:25.477Z,7.40
2019-03-26T21:42:48.320Z,7.97
2019-03-26T22:00:44.244Z,6.25
2019-03-26T22:02:57.581Z,6.33
2019-03-26T22:11:49.034Z,6.92
2019-03-26T22:14:17.769Z,6.67
2019-03-26T22:16:42.598Z,7.05
